sensor_id;sensor_type;location;lat;lon;timestamp;P1;durP1;ratioP1;P2;durP2;ratioP2
48945;SDS011;34999;50.940;3.998;2022-11-20T00:01:32;106.37;;;36.03;;
48945;SDS011;34999;50.940;3.998;2022-11-20T00:04:01;101.80;;;35.27;;
48945;SDS011;34999;50.940;3.998;2022-11-20T00:06:29;105.70;;;36.37;;
48945;SDS011;34999;50.940;3.998;2022-11-20T00:08:59;102.53;;;35.33;;
48945;SDS011;34999;50.940;3.998;2022-11-20T00:11:29;115.50;;;37.13;;
48945;SDS011;34999;50.940;3.998;2022-11-20T00:14:00;112.10;;;36.50;;
48945;SDS011;34999;50.940;3.998;2022-11-20T00:16:30;119.97;;;37.77;;
48945;SDS011;34999;50.940;3.998;2022-11-20T00:19:00;113.27;;;37.83;;
48945;SDS011;34999;50.940;3.998;2022-11-20T00:21:29;109.57;;;35.60;;
48945;SDS011;34999;50.940;3.998;2022-11-20T00:23:57;111.97;;;37.20;;
48945;SDS011;34999;50.940;3.998;2022-11-20T00:26:27;108.13;;;36.17;;
48945;SDS011;34999;50.940;3.998;2022-11-20T00:28:57;97.63;;;34.80;;
48945;SDS011;34999;50.940;3.998;2022-11-20T00:31:27;118.50;;;38.17;;
48945;SDS011;34999;50.940;3.998;2022-11-20T00:33:56;105.13;;;37.33;;
48945;SDS011;34999;50.940;3.998;2022-11-20T00:36:25;101.23;;;37.73;;
48945;SDS011;34999;50.940;3.998;2022-11-20T00:38:55;102.23;;;35.63;;
48945;SDS011;34999;50.940;3.998;2022-11-20T00:41:26;103.10;;;36.53;;
48945;SDS011;34999;50.940;3.998;2022-11-20T00:43:55;100.23;;;35.03;;
48945;SDS011;34999;50.940;3.998;2022-11-20T00:46:25;92.90;;;34.23;;
48945;SDS011;34999;50.940;3.998;2022-11-20T00:48:54;98.03;;;35.87;;
48945;SDS011;34999;50.940;3.998;2022-11-20T00:51:24;96.20;;;36.03;;
48945;SDS011;34999;50.940;3.998;2022-11-20T00:53:54;96.07;;;34.70;;
48945;SDS011;34999;50.940;3.998;2022-11-20T00:56:23;88.47;;;33.30;;
48945;SDS011;34999;50.940;3.998;2022-11-20T00:58:53;108.40;;;35.90;;
48945;SDS011;34999;50.940;3.998;2022-11-20T01:01:22;113.47;;;37.13;;
48945;SDS011;34999;50.940;3.998;2022-11-20T01:03:53;104.30;;;36.10;;
48945;SDS011;34999;50.940;3.998;2022-11-20T01:06:26;97.67;;;35.27;;
48945;SDS011;34999;50.940;3.998;2022-11-20T01:08:57;96.27;;;35.23;;
48945;SDS011;34999;50.940;3.998;2022-11-20T01:11:26;95.63;;;35.83;;
48945;SDS011;34999;50.940;3.998;2022-11-20T01:13:58;95.80;;;35.73;;
48945;SDS011;34999;50.940;3.998;2022-11-20T01:16:28;92.77;;;34.30;;
48945;SDS011;34999;50.940;3.998;2022-11-20T01:18:58;97.07;;;35.07;;
48945;SDS011;34999;50.940;3.998;2022-11-20T01:21:30;90.43;;;34.00;;
48945;SDS011;34999;50.940;3.998;2022-11-20T01:23:59;94.47;;;35.20;;
48945;SDS011;34999;50.940;3.998;2022-11-20T01:26:29;94.73;;;37.97;;
48945;SDS011;34999;50.940;3.998;2022-11-20T01:29:00;112.60;;;37.23;;
48945;SDS011;34999;50.940;3.998;2022-11-20T01:31:29;93.87;;;36.07;;
48945;SDS011;34999;50.940;3.998;2022-11-20T01:33:59;105.80;;;38.13;;
48945;SDS011;34999;50.940;3.998;2022-11-20T01:36:29;103.33;;;35.43;;
48945;SDS011;34999;50.940;3.998;2022-11-20T01:39:00;93.43;;;33.87;;
48945;SDS011;34999;50.940;3.998;2022-11-20T01:41:31;97.67;;;34.73;;
48945;SDS011;34999;50.940;3.998;2022-11-20T01:44:21;101.20;;;34.93;;
48945;SDS011;34999;50.940;3.998;2022-11-20T01:46:52;93.17;;;34.23;;
48945;SDS011;34999;50.940;3.998;2022-11-20T01:49:30;116.40;;;36.97;;
48945;SDS011;34999;50.940;3.998;2022-11-20T01:52:14;111.27;;;35.80;;
48945;SDS011;34999;50.940;3.998;2022-11-20T01:54:46;115.43;;;36.90;;
48945;SDS011;34999;50.940;3.998;2022-11-20T01:57:18;99.50;;;35.73;;
48945;SDS011;34999;50.940;3.998;2022-11-20T01:59:51;104.43;;;36.27;;
48945;SDS011;34999;50.940;3.998;2022-11-20T02:02:24;106.67;;;36.40;;
48945;SDS011;34999;50.940;3.998;2022-11-20T02:04:53;107.20;;;35.47;;
48945;SDS011;34999;50.940;3.998;2022-11-20T02:07:24;107.07;;;36.10;;
48945;SDS011;34999;50.940;3.998;2022-11-20T02:09:52;105.03;;;36.33;;
48945;SDS011;34999;50.940;3.998;2022-11-20T02:12:24;105.90;;;36.30;;
48945;SDS011;34999;50.940;3.998;2022-11-20T02:15:11;119.13;;;38.17;;
48945;SDS011;34999;50.940;3.998;2022-11-20T02:17:39;114.73;;;38.23;;
48945;SDS011;34999;50.940;3.998;2022-11-20T02:20:08;118.73;;;37.27;;
48945;SDS011;34999;50.940;3.998;2022-11-20T02:22:38;104.90;;;35.80;;
48945;SDS011;34999;50.940;3.998;2022-11-20T02:25:17;121.60;;;36.67;;
48945;SDS011;34999;50.940;3.998;2022-11-20T02:27:47;117.07;;;36.37;;
48945;SDS011;34999;50.940;3.998;2022-11-20T02:30:16;117.50;;;36.93;;
48945;SDS011;34999;50.940;3.998;2022-11-20T02:32:44;119.43;;;36.07;;
48945;SDS011;34999;50.940;3.998;2022-11-20T02:38:07;119.53;;;36.67;;
48945;SDS011;34999;50.940;3.998;2022-11-20T02:40:38;106.47;;;35.10;;
48945;SDS011;34999;50.940;3.998;2022-11-20T02:43:06;107.77;;;37.83;;
48945;SDS011;34999;50.940;3.998;2022-11-20T02:45:35;113.57;;;37.23;;
48945;SDS011;34999;50.940;3.998;2022-11-20T02:48:05;106.60;;;36.37;;
48945;SDS011;34999;50.940;3.998;2022-11-20T02:50:36;114.13;;;38.17;;
48945;SDS011;34999;50.940;3.998;2022-11-20T02:53:06;111.43;;;35.93;;
48945;SDS011;34999;50.940;3.998;2022-11-20T02:55:35;110.13;;;35.77;;
48945;SDS011;34999;50.940;3.998;2022-11-20T02:58:04;114.13;;;34.93;;
48945;SDS011;34999;50.940;3.998;2022-11-20T03:00:33;109.47;;;34.73;;
48945;SDS011;34999;50.940;3.998;2022-11-20T03:03:01;116.53;;;37.13;;
48945;SDS011;34999;50.940;3.998;2022-11-20T03:05:30;109.03;;;35.80;;
48945;SDS011;34999;50.940;3.998;2022-11-20T03:07:58;106.70;;;35.10;;
48945;SDS011;34999;50.940;3.998;2022-11-20T03:10:26;106.67;;;35.97;;
48945;SDS011;34999;50.940;3.998;2022-11-20T03:12:55;119.40;;;36.60;;
48945;SDS011;34999;50.940;3.998;2022-11-20T03:15:25;109.97;;;36.53;;
48945;SDS011;34999;50.940;3.998;2022-11-20T03:17:53;107.87;;;35.50;;
48945;SDS011;34999;50.940;3.998;2022-11-20T03:20:22;106.70;;;36.23;;
48945;SDS011;34999;50.940;3.998;2022-11-20T03:22:52;110.43;;;37.23;;
48945;SDS011;34999;50.940;3.998;2022-11-20T03:25:21;104.20;;;34.33;;
48945;SDS011;34999;50.940;3.998;2022-11-20T03:27:49;112.73;;;35.80;;
48945;SDS011;34999;50.940;3.998;2022-11-20T03:30:18;115.77;;;34.73;;
48945;SDS011;34999;50.940;3.998;2022-11-20T03:32:53;113.33;;;36.37;;
48945;SDS011;34999;50.940;3.998;2022-11-20T03:35:22;99.80;;;34.43;;
48945;SDS011;34999;50.940;3.998;2022-11-20T03:37:50;102.47;;;35.10;;
48945;SDS011;34999;50.940;3.998;2022-11-20T03:40:18;115.57;;;36.13;;
48945;SDS011;34999;50.940;3.998;2022-11-20T03:42:47;115.67;;;35.33;;
48945;SDS011;34999;50.940;3.998;2022-11-20T03:45:16;100.87;;;33.97;;
48945;SDS011;34999;50.940;3.998;2022-11-20T03:47:45;94.77;;;33.30;;
48945;SDS011;34999;50.940;3.998;2022-11-20T03:50:16;102.43;;;34.20;;
48945;SDS011;34999;50.940;3.998;2022-11-20T03:52:44;98.60;;;33.63;;
48945;SDS011;34999;50.940;3.998;2022-11-20T03:55:12;103.67;;;34.63;;
48945;SDS011;34999;50.940;3.998;2022-11-20T03:57:41;98.43;;;33.93;;
48945;SDS011;34999;50.940;3.998;2022-11-20T04:00:09;95.87;;;33.40;;
48945;SDS011;34999;50.940;3.998;2022-11-20T04:02:38;97.07;;;34.37;;
48945;SDS011;34999;50.940;3.998;2022-11-20T04:05:07;103.37;;;32.63;;
48945;SDS011;34999;50.940;3.998;2022-11-20T04:07:37;93.27;;;33.03;;
48945;SDS011;34999;50.940;3.998;2022-11-20T04:10:05;92.87;;;31.27;;
48945;SDS011;34999;50.940;3.998;2022-11-20T04:12:34;99.83;;;32.97;;
48945;SDS011;34999;50.940;3.998;2022-11-20T04:15:03;85.70;;;32.13;;
48945;SDS011;34999;50.940;3.998;2022-11-20T04:17:31;91.53;;;32.57;;
48945;SDS011;34999;50.940;3.998;2022-11-20T04:20:00;99.80;;;33.30;;
48945;SDS011;34999;50.940;3.998;2022-11-20T04:22:28;93.63;;;34.70;;
48945;SDS011;34999;50.940;3.998;2022-11-20T04:24:58;97.63;;;33.60;;
48945;SDS011;34999;50.940;3.998;2022-11-20T04:27:26;104.60;;;35.47;;
48945;SDS011;34999;50.940;3.998;2022-11-20T04:29:56;92.73;;;33.97;;
48945;SDS011;34999;50.940;3.998;2022-11-20T04:32:24;97.53;;;33.37;;
48945;SDS011;34999;50.940;3.998;2022-11-20T04:34:52;98.73;;;33.97;;
48945;SDS011;34999;50.940;3.998;2022-11-20T04:37:20;97.30;;;33.20;;
48945;SDS011;34999;50.940;3.998;2022-11-20T04:39:49;102.67;;;34.10;;
48945;SDS011;34999;50.940;3.998;2022-11-20T04:42:19;104.73;;;34.83;;
48945;SDS011;34999;50.940;3.998;2022-11-20T04:44:56;107.27;;;33.33;;
48945;SDS011;34999;50.940;3.998;2022-11-20T04:47:25;99.97;;;35.10;;
48945;SDS011;34999;50.940;3.998;2022-11-20T04:49:53;106.07;;;33.63;;
48945;SDS011;34999;50.940;3.998;2022-11-20T04:52:22;106.07;;;34.23;;
48945;SDS011;34999;50.940;3.998;2022-11-20T04:54:51;102.70;;;33.03;;
48945;SDS011;34999;50.940;3.998;2022-11-20T04:57:21;105.80;;;32.60;;
48945;SDS011;34999;50.940;3.998;2022-11-20T04:59:49;111.23;;;33.40;;
48945;SDS011;34999;50.940;3.998;2022-11-20T05:02:18;93.17;;;33.27;;
48945;SDS011;34999;50.940;3.998;2022-11-20T05:04:47;110.53;;;35.73;;
48945;SDS011;34999;50.940;3.998;2022-11-20T05:07:16;104.70;;;33.63;;
48945;SDS011;34999;50.940;3.998;2022-11-20T05:09:45;114.03;;;34.90;;
48945;SDS011;34999;50.940;3.998;2022-11-20T05:12:13;109.17;;;34.13;;
48945;SDS011;34999;50.940;3.998;2022-11-20T05:14:42;113.53;;;35.47;;
48945;SDS011;34999;50.940;3.998;2022-11-20T05:17:11;110.27;;;34.03;;
48945;SDS011;34999;50.940;3.998;2022-11-20T05:19:40;119.50;;;36.20;;
48945;SDS011;34999;50.940;3.998;2022-11-20T05:22:08;117.60;;;34.33;;
48945;SDS011;34999;50.940;3.998;2022-11-20T05:24:37;119.97;;;34.53;;
48945;SDS011;34999;50.940;3.998;2022-11-20T05:27:05;123.03;;;35.73;;
48945;SDS011;34999;50.940;3.998;2022-11-20T05:29:33;121.67;;;34.30;;
48945;SDS011;34999;50.940;3.998;2022-11-20T05:32:03;125.73;;;35.97;;
48945;SDS011;34999;50.940;3.998;2022-11-20T05:34:35;117.03;;;35.20;;
48945;SDS011;34999;50.940;3.998;2022-11-20T05:37:04;116.90;;;32.50;;
48945;SDS011;34999;50.940;3.998;2022-11-20T05:39:32;129.73;;;35.63;;
48945;SDS011;34999;50.940;3.998;2022-11-20T05:42:00;119.90;;;35.20;;
48945;SDS011;34999;50.940;3.998;2022-11-20T05:44:43;147.37;;;37.67;;
48945;SDS011;34999;50.940;3.998;2022-11-20T05:47:12;136.30;;;37.00;;
48945;SDS011;34999;50.940;3.998;2022-11-20T05:49:40;132.20;;;36.47;;
48945;SDS011;34999;50.940;3.998;2022-11-20T05:52:09;135.67;;;35.80;;
48945;SDS011;34999;50.940;3.998;2022-11-20T05:54:37;148.10;;;37.17;;
48945;SDS011;34999;50.940;3.998;2022-11-20T05:57:05;134.57;;;35.93;;
48945;SDS011;34999;50.940;3.998;2022-11-20T05:59:34;126.63;;;34.57;;
48945;SDS011;34999;50.940;3.998;2022-11-20T06:02:02;136.87;;;34.97;;
48945;SDS011;34999;50.940;3.998;2022-11-20T06:04:32;131.87;;;35.43;;
48945;SDS011;34999;50.940;3.998;2022-11-20T06:07:00;135.17;;;35.73;;
48945;SDS011;34999;50.940;3.998;2022-11-20T06:09:29;118.27;;;32.50;;
48945;SDS011;34999;50.940;3.998;2022-11-20T06:11:57;137.90;;;36.17;;
48945;SDS011;34999;50.940;3.998;2022-11-20T06:14:25;117.37;;;32.43;;
48945;SDS011;34999;50.940;3.998;2022-11-20T06:16:54;142.97;;;36.33;;
48945;SDS011;34999;50.940;3.998;2022-11-20T06:19:22;113.77;;;33.60;;
48945;SDS011;34999;50.940;3.998;2022-11-20T06:21:52;135.10;;;35.20;;
48945;SDS011;34999;50.940;3.998;2022-11-20T06:24:21;116.00;;;32.77;;
48945;SDS011;34999;50.940;3.998;2022-11-20T06:26:49;139.63;;;36.03;;
48945;SDS011;34999;50.940;3.998;2022-11-20T06:29:18;137.80;;;35.30;;
48945;SDS011;34999;50.940;3.998;2022-11-20T06:31:47;125.23;;;33.90;;
48945;SDS011;34999;50.940;3.998;2022-11-20T06:34:15;131.30;;;36.07;;
48945;SDS011;34999;50.940;3.998;2022-11-20T06:36:44;121.30;;;34.80;;
48945;SDS011;34999;50.940;3.998;2022-11-20T06:39:13;124.70;;;34.13;;
48945;SDS011;34999;50.940;3.998;2022-11-20T06:41:41;131.27;;;34.93;;
48945;SDS011;34999;50.940;3.998;2022-11-20T06:44:10;126.20;;;33.97;;
48945;SDS011;34999;50.940;3.998;2022-11-20T06:46:38;125.77;;;34.47;;
48945;SDS011;34999;50.940;3.998;2022-11-20T06:49:06;118.93;;;33.20;;
48945;SDS011;34999;50.940;3.998;2022-11-20T06:51:35;112.53;;;32.83;;
48945;SDS011;34999;50.940;3.998;2022-11-20T06:54:03;128.70;;;35.27;;
48945;SDS011;34999;50.940;3.998;2022-11-20T06:56:33;121.97;;;33.97;;
48945;SDS011;34999;50.940;3.998;2022-11-20T06:59:03;126.10;;;34.40;;
48945;SDS011;34999;50.940;3.998;2022-11-20T07:01:32;133.13;;;37.40;;
48945;SDS011;34999;50.940;3.998;2022-11-20T07:04:01;151.83;;;45.60;;
48945;SDS011;34999;50.940;3.998;2022-11-20T07:06:30;148.13;;;46.10;;
48945;SDS011;34999;50.940;3.998;2022-11-20T07:08:58;135.10;;;41.30;;
48945;SDS011;34999;50.940;3.998;2022-11-20T07:11:27;143.73;;;40.77;;
48945;SDS011;34999;50.940;3.998;2022-11-20T07:13:57;135.57;;;40.17;;
48945;SDS011;34999;50.940;3.998;2022-11-20T07:16:26;134.90;;;40.67;;
48945;SDS011;34999;50.940;3.998;2022-11-20T07:18:54;134.67;;;39.23;;
48945;SDS011;34999;50.940;3.998;2022-11-20T07:21:22;136.00;;;39.80;;
48945;SDS011;34999;50.940;3.998;2022-11-20T07:23:50;138.33;;;42.20;;
48945;SDS011;34999;50.940;3.998;2022-11-20T07:26:19;127.27;;;40.70;;
48945;SDS011;34999;50.940;3.998;2022-11-20T07:28:48;134.70;;;40.10;;
48945;SDS011;34999;50.940;3.998;2022-11-20T07:31:17;137.83;;;40.03;;
48945;SDS011;34999;50.940;3.998;2022-11-20T07:33:46;117.67;;;33.90;;
48945;SDS011;34999;50.940;3.998;2022-11-20T07:36:14;121.87;;;39.20;;
48945;SDS011;34999;50.940;3.998;2022-11-20T07:38:42;111.27;;;34.47;;
48945;SDS011;34999;50.940;3.998;2022-11-20T07:41:11;121.43;;;35.67;;
48945;SDS011;34999;50.940;3.998;2022-11-20T07:43:39;121.40;;;37.77;;
48945;SDS011;34999;50.940;3.998;2022-11-20T07:46:07;134.07;;;38.80;;
48945;SDS011;34999;50.940;3.998;2022-11-20T07:48:37;121.17;;;37.33;;
48945;SDS011;34999;50.940;3.998;2022-11-20T07:51:06;102.47;;;32.23;;
48945;SDS011;34999;50.940;3.998;2022-11-20T07:53:34;107.67;;;31.93;;
48945;SDS011;34999;50.940;3.998;2022-11-20T07:56:04;104.90;;;32.03;;
48945;SDS011;34999;50.940;3.998;2022-11-20T07:58:33;106.80;;;31.87;;
48945;SDS011;34999;50.940;3.998;2022-11-20T08:01:02;106.00;;;31.00;;
48945;SDS011;34999;50.940;3.998;2022-11-20T08:03:31;100.33;;;32.00;;
48945;SDS011;34999;50.940;3.998;2022-11-20T08:06:01;112.77;;;33.47;;
48945;SDS011;34999;50.940;3.998;2022-11-20T08:08:29;111.90;;;32.03;;
48945;SDS011;34999;50.940;3.998;2022-11-20T08:11:00;100.03;;;31.13;;
48945;SDS011;34999;50.940;3.998;2022-11-20T08:13:42;118.90;;;33.97;;
48945;SDS011;34999;50.940;3.998;2022-11-20T08:16:29;123.40;;;40.43;;
48945;SDS011;34999;50.940;3.998;2022-11-20T08:18:57;116.70;;;38.53;;
48945;SDS011;34999;50.940;3.998;2022-11-20T08:21:27;97.80;;;29.13;;
48945;SDS011;34999;50.940;3.998;2022-11-20T08:24:02;113.73;;;34.80;;
48945;SDS011;34999;50.940;3.998;2022-11-20T08:26:31;99.37;;;31.20;;
48945;SDS011;34999;50.940;3.998;2022-11-20T08:29:00;94.47;;;29.93;;
48945;SDS011;34999;50.940;3.998;2022-11-20T08:31:28;96.90;;;29.33;;
48945;SDS011;34999;50.940;3.998;2022-11-20T08:33:57;111.13;;;31.80;;
48945;SDS011;34999;50.940;3.998;2022-11-20T08:36:26;100.63;;;32.13;;
48945;SDS011;34999;50.940;3.998;2022-11-20T08:38:55;89.47;;;29.70;;
48945;SDS011;34999;50.940;3.998;2022-11-20T08:41:23;101.43;;;33.57;;
48945;SDS011;34999;50.940;3.998;2022-11-20T08:43:55;95.17;;;30.20;;
48945;SDS011;34999;50.940;3.998;2022-11-20T08:46:26;90.07;;;29.70;;
48945;SDS011;34999;50.940;3.998;2022-11-20T08:48:58;97.97;;;31.93;;
48945;SDS011;34999;50.940;3.998;2022-11-20T08:51:28;100.93;;;31.17;;
48945;SDS011;34999;50.940;3.998;2022-11-20T08:53:57;90.17;;;30.20;;
48945;SDS011;34999;50.940;3.998;2022-11-20T08:56:25;91.20;;;28.47;;
48945;SDS011;34999;50.940;3.998;2022-11-20T08:58:54;92.70;;;28.87;;
48945;SDS011;34999;50.940;3.998;2022-11-20T09:01:43;85.57;;;27.27;;
48945;SDS011;34999;50.940;3.998;2022-11-20T09:04:11;96.43;;;26.80;;
48945;SDS011;34999;50.940;3.998;2022-11-20T09:06:42;85.07;;;26.57;;
48945;SDS011;34999;50.940;3.998;2022-11-20T09:09:10;79.67;;;26.40;;
48945;SDS011;34999;50.940;3.998;2022-11-20T09:11:38;78.87;;;26.60;;
48945;SDS011;34999;50.940;3.998;2022-11-20T09:14:07;85.47;;;25.23;;
48945;SDS011;34999;50.940;3.998;2022-11-20T09:16:35;85.47;;;25.10;;
48945;SDS011;34999;50.940;3.998;2022-11-20T09:19:04;80.40;;;25.67;;
48945;SDS011;34999;50.940;3.998;2022-11-20T09:21:54;76.53;;;24.43;;
48945;SDS011;34999;50.940;3.998;2022-11-20T09:24:25;72.13;;;24.37;;
48945;SDS011;34999;50.940;3.998;2022-11-20T09:26:54;77.40;;;24.53;;
48945;SDS011;34999;50.940;3.998;2022-11-20T09:29:22;67.20;;;24.27;;
48945;SDS011;34999;50.940;3.998;2022-11-20T09:31:51;75.83;;;25.07;;
48945;SDS011;34999;50.940;3.998;2022-11-20T09:34:19;71.60;;;24.60;;
48945;SDS011;34999;50.940;3.998;2022-11-20T09:36:47;69.70;;;24.03;;
48945;SDS011;34999;50.940;3.998;2022-11-20T09:39:17;64.97;;;24.13;;
48945;SDS011;34999;50.940;3.998;2022-11-20T09:41:53;66.57;;;25.53;;
48945;SDS011;34999;50.940;3.998;2022-11-20T09:44:43;61.33;;;25.23;;
48945;SDS011;34999;50.940;3.998;2022-11-20T09:47:25;68.87;;;24.97;;
48945;SDS011;34999;50.940;3.998;2022-11-20T09:50:10;66.70;;;25.03;;
48945;SDS011;34999;50.940;3.998;2022-11-20T09:52:54;70.27;;;25.93;;
48945;SDS011;34999;50.940;3.998;2022-11-20T09:55:33;53.80;;;20.87;;
48945;SDS011;34999;50.940;3.998;2022-11-20T09:58:05;62.07;;;27.87;;
48945;SDS011;34999;50.940;3.998;2022-11-20T10:00:34;57.93;;;21.10;;
48945;SDS011;34999;50.940;3.998;2022-11-20T10:03:05;45.83;;;19.23;;
48945;SDS011;34999;50.940;3.998;2022-11-20T10:05:42;46.10;;;18.63;;
48945;SDS011;34999;50.940;3.998;2022-11-20T10:08:14;36.40;;;16.87;;
48945;SDS011;34999;50.940;3.998;2022-11-20T10:10:49;42.17;;;16.60;;
48945;SDS011;34999;50.940;3.998;2022-11-20T10:13:24;35.80;;;16.90;;
48945;SDS011;34999;50.940;3.998;2022-11-20T10:16:09;27.67;;;15.27;;
48945;SDS011;34999;50.940;3.998;2022-11-20T10:18:50;25.83;;;13.53;;
48945;SDS011;34999;50.940;3.998;2022-11-20T10:21:27;26.80;;;14.27;;
48945;SDS011;34999;50.940;3.998;2022-11-20T10:24:10;28.50;;;14.47;;
48945;SDS011;34999;50.940;3.998;2022-11-20T10:26:56;31.97;;;17.87;;
48945;SDS011;34999;50.940;3.998;2022-11-20T10:29:32;28.23;;;14.10;;
48945;SDS011;34999;50.940;3.998;2022-11-20T10:32:02;24.83;;;13.07;;
48945;SDS011;34999;50.940;3.998;2022-11-20T10:34:37;27.07;;;15.93;;
48945;SDS011;34999;50.940;3.998;2022-11-20T10:37:14;23.00;;;13.93;;
48945;SDS011;34999;50.940;3.998;2022-11-20T10:39:47;19.30;;;11.20;;
48945;SDS011;34999;50.940;3.998;2022-11-20T10:42:23;21.83;;;11.73;;
48945;SDS011;34999;50.940;3.998;2022-11-20T10:44:58;15.13;;;9.17;;
48945;SDS011;34999;50.940;3.998;2022-11-20T10:47:32;14.67;;;8.17;;
48945;SDS011;34999;50.940;3.998;2022-11-20T10:50:01;15.10;;;10.00;;
48945;SDS011;34999;50.940;3.998;2022-11-20T10:52:35;9.80;;;7.47;;
48945;SDS011;34999;50.940;3.998;2022-11-20T10:55:16;14.77;;;9.90;;
48945;SDS011;34999;50.940;3.998;2022-11-20T10:57:57;13.63;;;8.47;;
48945;SDS011;34999;50.940;3.998;2022-11-20T11:00:30;17.07;;;10.57;;
48945;SDS011;34999;50.940;3.998;2022-11-20T11:03:20;9.27;;;6.23;;
48945;SDS011;34999;50.940;3.998;2022-11-20T11:05:53;17.93;;;13.50;;
48945;SDS011;34999;50.940;3.998;2022-11-20T11:08:28;21.87;;;15.27;;
48945;SDS011;34999;50.940;3.998;2022-11-20T11:11:07;13.10;;;10.07;;
48945;SDS011;34999;50.940;3.998;2022-11-20T11:13:47;15.37;;;10.77;;
48945;SDS011;34999;50.940;3.998;2022-11-20T11:16:22;17.53;;;12.20;;
48945;SDS011;34999;50.940;3.998;2022-11-20T11:18:51;22.90;;;14.97;;
48945;SDS011;34999;50.940;3.998;2022-11-20T11:21:31;13.83;;;9.30;;
48945;SDS011;34999;50.940;3.998;2022-11-20T11:24:00;13.10;;;7.23;;
48945;SDS011;34999;50.940;3.998;2022-11-20T11:26:55;15.50;;;5.33;;
48945;SDS011;34999;50.940;3.998;2022-11-20T11:29:26;11.03;;;5.83;;
48945;SDS011;34999;50.940;3.998;2022-11-20T11:32:03;7.97;;;5.63;;
48945;SDS011;34999;50.940;3.998;2022-11-20T11:34:32;9.50;;;7.50;;
48945;SDS011;34999;50.940;3.998;2022-11-20T11:37:01;6.33;;;4.13;;
48945;SDS011;34999;50.940;3.998;2022-11-20T11:39:31;11.63;;;6.87;;
48945;SDS011;34999;50.940;3.998;2022-11-20T11:42:00;9.97;;;7.93;;
48945;SDS011;34999;50.940;3.998;2022-11-20T11:44:31;7.70;;;4.90;;
48945;SDS011;34999;50.940;3.998;2022-11-20T11:47:20;6.80;;;5.57;;
48945;SDS011;34999;50.940;3.998;2022-11-20T11:50:00;5.77;;;5.20;;
48945;SDS011;34999;50.940;3.998;2022-11-20T11:52:29;8.67;;;6.60;;
48945;SDS011;34999;50.940;3.998;2022-11-20T11:55:01;5.57;;;4.40;;
48945;SDS011;34999;50.940;3.998;2022-11-20T11:57:40;9.20;;;5.20;;
48945;SDS011;34999;50.940;3.998;2022-11-20T12:00:15;10.07;;;6.00;;
48945;SDS011;34999;50.940;3.998;2022-11-20T12:02:49;11.73;;;7.40;;
48945;SDS011;34999;50.940;3.998;2022-11-20T12:05:28;10.03;;;5.80;;
48945;SDS011;34999;50.940;3.998;2022-11-20T12:08:03;15.40;;;7.50;;
48945;SDS011;34999;50.940;3.998;2022-11-20T12:10:41;8.77;;;5.67;;
48945;SDS011;34999;50.940;3.998;2022-11-20T12:13:17;8.97;;;6.60;;
48945;SDS011;34999;50.940;3.998;2022-11-20T12:15:59;11.53;;;6.77;;
48945;SDS011;34999;50.940;3.998;2022-11-20T12:18:28;10.67;;;7.27;;
48945;SDS011;34999;50.940;3.998;2022-11-20T12:21:01;14.10;;;6.90;;
48945;SDS011;34999;50.940;3.998;2022-11-20T12:23:40;9.47;;;6.10;;
48945;SDS011;34999;50.940;3.998;2022-11-20T12:26:22;10.57;;;7.27;;
48945;SDS011;34999;50.940;3.998;2022-11-20T12:29:08;12.43;;;8.20;;
48945;SDS011;34999;50.940;3.998;2022-11-20T12:31:46;9.87;;;4.83;;
48945;SDS011;34999;50.940;3.998;2022-11-20T12:34:27;16.47;;;7.87;;
48945;SDS011;34999;50.940;3.998;2022-11-20T12:37:14;10.03;;;5.20;;
48945;SDS011;34999;50.940;3.998;2022-11-20T12:39:51;10.23;;;5.27;;
48945;SDS011;34999;50.940;3.998;2022-11-20T12:42:36;7.23;;;5.10;;
48945;SDS011;34999;50.940;3.998;2022-11-20T12:45:40;9.90;;;5.17;;
48945;SDS011;34999;50.940;3.998;2022-11-20T12:48:25;9.40;;;4.83;;
48945;SDS011;34999;50.940;3.998;2022-11-20T12:51:21;13.70;;;5.97;;
48945;SDS011;34999;50.940;3.998;2022-11-20T12:54:11;7.57;;;5.00;;
48945;SDS011;34999;50.940;3.998;2022-11-20T12:57:05;7.40;;;5.07;;
48945;SDS011;34999;50.940;3.998;2022-11-20T12:59:51;10.20;;;5.43;;
48945;SDS011;34999;50.940;3.998;2022-11-20T13:02:33;6.27;;;5.43;;
48945;SDS011;34999;50.940;3.998;2022-11-20T13:05:17;8.60;;;5.60;;
48945;SDS011;34999;50.940;3.998;2022-11-20T13:07:48;5.60;;;5.07;;
48945;SDS011;34999;50.940;3.998;2022-11-20T13:10:21;5.53;;;4.70;;
48945;SDS011;34999;50.940;3.998;2022-11-20T13:12:56;5.30;;;4.27;;
48945;SDS011;34999;50.940;3.998;2022-11-20T13:15:34;10.57;;;4.67;;
48945;SDS011;34999;50.940;3.998;2022-11-20T13:18:15;8.03;;;4.87;;
48945;SDS011;34999;50.940;3.998;2022-11-20T13:20:45;6.50;;;3.87;;
48945;SDS011;34999;50.940;3.998;2022-11-20T13:23:22;6.63;;;4.53;;
48945;SDS011;34999;50.940;3.998;2022-11-20T13:26:02;4.50;;;4.10;;
48945;SDS011;34999;50.940;3.998;2022-11-20T13:28:32;5.17;;;4.40;;
48945;SDS011;34999;50.940;3.998;2022-11-20T13:31:02;5.00;;;4.57;;
48945;SDS011;34999;50.940;3.998;2022-11-20T13:33:31;7.70;;;4.10;;
48945;SDS011;34999;50.940;3.998;2022-11-20T13:36:02;7.70;;;4.10;;
48945;SDS011;34999;50.940;3.998;2022-11-20T13:38:40;4.20;;;3.90;;
48945;SDS011;34999;50.940;3.998;2022-11-20T13:41:11;4.83;;;3.80;;
48945;SDS011;34999;50.940;3.998;2022-11-20T13:43:58;6.80;;;3.60;;
48945;SDS011;34999;50.940;3.998;2022-11-20T13:46:35;5.40;;;3.80;;
48945;SDS011;34999;50.940;3.998;2022-11-20T13:49:06;4.10;;;3.80;;
48945;SDS011;34999;50.940;3.998;2022-11-20T13:51:40;4.87;;;3.93;;
48945;SDS011;34999;50.940;3.998;2022-11-20T13:57:33;3.97;;;3.67;;
48945;SDS011;34999;50.940;3.998;2022-11-20T14:00:13;4.97;;;3.90;;
48945;SDS011;34999;50.940;3.998;2022-11-20T14:02:44;4.13;;;3.93;;
48945;SDS011;34999;50.940;3.998;2022-11-20T14:05:19;4.17;;;3.87;;
48945;SDS011;34999;50.940;3.998;2022-11-20T14:07:51;4.80;;;4.40;;
48945;SDS011;34999;50.940;3.998;2022-11-20T14:10:23;15.77;;;10.00;;
48945;SDS011;34999;50.940;3.998;2022-11-20T14:12:57;14.07;;;9.70;;
48945;SDS011;34999;50.940;3.998;2022-11-20T14:15:37;17.33;;;11.37;;
48945;SDS011;34999;50.940;3.998;2022-11-20T14:18:11;13.33;;;9.33;;
48945;SDS011;34999;50.940;3.998;2022-11-20T14:20:41;8.13;;;5.40;;
48945;SDS011;34999;50.940;3.998;2022-11-20T14:23:11;11.77;;;8.60;;
48945;SDS011;34999;50.940;3.998;2022-11-20T14:25:41;9.93;;;7.57;;
48945;SDS011;34999;50.940;3.998;2022-11-20T14:28:11;9.40;;;7.37;;
48945;SDS011;34999;50.940;3.998;2022-11-20T14:30:48;8.27;;;7.50;;
48945;SDS011;34999;50.940;3.998;2022-11-20T14:33:17;11.63;;;9.43;;
48945;SDS011;34999;50.940;3.998;2022-11-20T14:35:46;9.27;;;8.40;;
48945;SDS011;34999;50.940;3.998;2022-11-20T14:38:19;10.10;;;8.90;;
48945;SDS011;34999;50.940;3.998;2022-11-20T14:40:49;7.80;;;7.10;;
48945;SDS011;34999;50.940;3.998;2022-11-20T14:43:19;8.00;;;6.93;;
48945;SDS011;34999;50.940;3.998;2022-11-20T14:45:58;11.67;;;10.13;;
48945;SDS011;34999;50.940;3.998;2022-11-20T14:48:29;12.60;;;10.30;;
48945;SDS011;34999;50.940;3.998;2022-11-20T14:51:01;8.80;;;7.93;;
48945;SDS011;34999;50.940;3.998;2022-11-20T14:53:31;10.90;;;7.53;;
48945;SDS011;34999;50.940;3.998;2022-11-20T14:56:00;8.90;;;7.40;;